Time;durP1;ratioP1;P1;durP2;ratioP2;P2;SDS_P1;SDS_P2;PMS_P1;PMS_P2;Temp;Humidity;BMP_temperature;BMP_pressure;BME280_temperature;BME280_humidity;BME280_pressure;Samples;Min_cycle;Max_cycle;Signal;HPM_P1;HPM_P2
2021/10/28 00:16:13;;;;;;;6.93;2.47;;;9.60;78.30;;;;;;4996843;28;20667;-87
2021/10/28 00:23:06;;;;;;;1.23;1.23;;;9.60;78.50;;;;;;4961704;28;20681;-86
2021/10/28 00:26:04;;;;;;;1.33;1.23;;;9.60;78.60;;;;;;5015764;28;20231;-86
2021/10/28 00:28:33;;;;;;;3.20;2.97;;;9.60;78.70;;;;;;5015764;28;20303;-86
2021/10/28 00:31:58;;;;;;;4.37;3.97;;;9.60;78.80;;;;;;5016142;28;20220;-86
2021/10/28 00:43:57;;;;;;;2.00;1.53;;;9.60;78.90;;;;;;4899862;29;20238;-86
2021/10/28 00:54:38;;;;;;;;;;;;;;;;;;;;;
2021/10/28 00:58:52;;;;;;;4.30;3.43;;;9.50;79.10;;;;;;4809670;29;20325;-86
2021/10/28 01:16:53;;;;;;;2.77;2.57;;;9.40;79.20;;;;;;4864154;29;20223;-86
2021/10/28 01:28:10;;;;;;;;;;;;;;;;;;;;;
2021/10/28 01:34:23;;;;;;;2.57;2.40;;;9.50;79.50;;;;;;4962039;28;20217;-86
2021/10/28 01:36:52;;;;;;;4.63;2.40;;;9.50;79.50;;;;;;4960502;28;20248;-86
2021/10/28 01:39:50;;;;;;;2.80;2.60;;;9.50;79.50;;;;;;4962199;28;20697;-87
2021/10/28 01:45:55;;;;;;;4.60;4.20;;;9.50;79.60;;;;;;4917652;29;20214;-87
2021/10/28 01:52:39;;;;;;;;;;;;;;;;;;;;;
2021/10/28 02:11:08;;;;;;;7.53;3.23;;;9.50;79.60;;;;;;4956743;29;20272;-88
2021/10/28 02:14:26;;;;;;;1.93;1.87;;;9.60;79.60;;;;;;4964445;28;20272;-87
2021/10/28 02:20:55;;;;;;;1.37;1.27;;;9.50;79.70;;;;;;5001423;28;20299;-87
2021/10/28 02:23:23;;;;;;;6.50;2.83;;;9.50;79.70;;;;;;5013773;28;20242;-86
2021/10/28 02:32:47;;;;;;;5.83;2.63;;;9.50;79.80;;;;;;4962860;28;20246;-86
2021/10/28 02:35:16;;;;;;;3.20;3.00;;;9.50;79.80;;;;;;5022481;28;20634;-87
2021/10/28 02:38:51;;;;;;;4.57;1.33;;;9.50;79.80;;;;;;5021994;28;20230;-87
2021/10/28 02:42:09;;;;;;;3.10;2.43;;;9.50;80.00;;;;;;4865192;29;20221;-87
2021/10/28 03:34:20;;;;;;;7.63;2.33;;;8.80;81.30;;;;;;5039254;28;20252;-86
2021/10/28 03:37:48;;;;;;;;;;;;;;;;;;;;;
2021/10/28 04:36:45;;;;;;;2.47;2.37;;;8.10;82.70;;;;;;4919795;29;20552;-87
2021/10/28 04:39:42;;;;;;;4.50;2.67;;;8.10;82.70;;;;;;4937507;29;20235;-87
2021/10/28 04:42:27;;;;;;;1.00;0.97;;;8.10;82.80;;;;;;4933686;28;20640;-87
2021/10/28 04:45:37;;;;;;;3.90;1.90;;;8.00;82.80;;;;;;5000101;28;20240;-87
2021/10/28 04:48:08;;;;;;;4.47;1.73;;;8.00;82.90;;;;;;4995950;28;20609;-87
2021/10/28 04:51:40;;;;;;;;;;;;;;;;;;;;;
2021/10/28 04:59:01;;;;;;;1.87;1.77;;;7.90;83.20;;;;;;5036585;28;20213;-87
2021/10/28 05:01:57;;;;;;;4.07;1.80;;;7.90;83.30;;;;;;4973057;28;20382;-87
2021/10/28 05:04:27;;;;;;;1.47;1.37;;;7.90;83.40;;;;;;4999533;28;20687;-87
2021/10/28 05:07:17;;;;;;;1.87;1.77;;;7.80;83.50;;;;;;4971967;28;20220;-87
2021/10/28 05:14:12;;;;;;;;;;;;;;;;;;;;;
2021/10/28 05:21:21;;;;;;;12.37;2.10;;;7.80;83.60;;;;;;4891944;29;20224;-87
2021/10/28 05:25:08;;;;;;;0.50;0.50;;;7.80;83.50;;;;;;4950048;29;20244;-87
2021/10/28 05:28:41;;;;;;;3.40;1.00;;;7.80;83.50;;;;;;4863414;29;20291;-87
2021/10/28 05:35:47;;;;;;;3.83;2.17;;;7.70;84.00;;;;;;4738717;30;20260;-87
2021/10/28 05:38:35;;;;;;;2.70;2.57;;;7.60;84.10;;;;;;4741166;30;20623;-87
2021/10/28 05:41:03;;;;;;;1.90;1.80;;;7.60;84.30;;;;;;4724508;30;20238;-87
2021/10/28 05:43:32;;;;;;;2.83;2.37;;;7.60;84.50;;;;;;4738850;30;20332;-87
2021/10/28 05:53:58;;;;;;;3.20;3.00;;;7.60;84.40;;;;;;4870306;29;20922;-87
2021/10/28 05:56:50;;;;;;;3.00;2.80;;;7.60;84.30;;;;;;4902138;29;20353;-87
2021/10/28 05:59:23;;;;;;;2.23;2.13;;;7.60;84.30;;;;;;4906340;29;20231;-88
2021/10/28 06:06:10;;;;;;;5.87;4.70;;;7.50;84.50;;;;;;4902354;28;20220;-88
2021/10/28 06:08:46;;;;;;;4.97;4.43;;;7.60;84.40;;;;;;4989100;28;20216;-87
2021/10/28 06:20:03;;;;;;;;;;;;;;;;;;;;;
2021/10/28 06:31:19;;;;;;;;;;;;;;;;;;;;;
2021/10/28 06:38:07;;;;;;;2.67;2.47;;;8.10;83.60;;;;;;4778855;30;20246;-87
2021/10/28 06:45:43;;;;;;;2.30;2.20;;;8.30;83.50;;;;;;4764761;29;20646;-88
2021/10/28 07:03:46;;;;;;;1.43;1.00;;;9.30;83.20;;;;;;4856458;29;20215;-88
2021/10/28 07:24:49;;;;;;;2.00;1.90;;;11.20;78.50;;;;;;5001383;28;20336;-87
2021/10/28 08:43:42;;;;;;;1.53;1.47;;;15.10;66.20;;;;;;4920600;29;20239;-87
2021/10/28 08:46:57;;;;;;;2.93;2.73;;;15.20;66.10;;;;;;4939754;29;20665;-85
2021/10/28 08:50:23;;;;;;;;;;;;;;;;;;;;;
2021/10/28 09:25:40;;;;;;;10.70;2.90;;;16.60;61.50;;;;;;5058237;28;20508;-86
2021/10/28 09:35:45;;;;;;;6.43;4.57;;;16.90;60.20;;;;;;5010442;28;20214;-85
2021/10/28 09:58:32;;;;;;;11.80;1.90;;;17.30;58.10;;;;;;5115630;27;20262;-86
2021/10/28 10:01:09;;;;;;;3.97;2.73;;;17.40;58.10;;;;;;5114790;28;20313;-85
2021/10/28 10:03:47;;;;;;;2.00;1.20;;;17.60;58.10;;;;;;5114901;28;20212;-86
2021/10/28 10:06:25;;;;;;;3.03;2.47;;;17.70;57.90;;;;;;5115659;28;20204;-85
2021/10/28 10:08:54;;;;;;;0.77;0.77;;;17.80;57.00;;;;;;5114915;28;20260;-86
2021/10/28 10:11:27;;;;;;;2.23;2.03;;;17.90;57.10;;;;;;5110729;28;20680;-85
2021/10/28 10:13:59;;;;;;;2.30;2.10;;;18.10;57.10;;;;;;5104357;28;20227;-85
2021/10/28 10:16:30;;;;;;;2.07;1.77;;;18.20;56.20;;;;;;5102423;28;20213;-86
2021/10/28 10:19:45;;;;;;;2.27;2.10;;;18.30;56.20;;;;;;5094024;28;20467;-86
2021/10/28 10:23:19;;;;;;;2.13;2.03;;;18.40;56.30;;;;;;5064518;28;20212;-86
2021/10/28 11:19:53;;;;;;;2.63;1.73;;;19.70;51.40;;;;;;5041228;28;20262;-84
2021/10/28 11:30:42;;;;;;;1.20;1.20;;;20.00;50.30;;;;;;4963260;29;20196;-86
2021/10/28 15:29:37;;;;;;;3.37;1.80;;;17.70;52.90;;;;;;5075243;28;20214;-72
2021/10/28 15:56:42;;;;;;;1.27;1.00;;;16.80;55.10;;;;;;5058824;28;20213;-71
2021/10/28 16:24:24;;;;;;;1.20;0.90;;;15.80;57.70;;;;;;5072714;28;20241;-72
2021/10/28 16:26:52;;;;;;;1.63;1.53;;;15.70;57.90;;;;;;5037718;28;20356;-73
2021/10/28 16:29:24;;;;;;;18.07;3.10;;;15.60;58.10;;;;;;5034689;28;20210;-71
2021/10/28 16:31:52;;;;;;;0.67;0.40;;;15.50;58.40;;;;;;5052155;28;20229;-71
2021/10/28 16:34:27;;;;;;;1.60;1.37;;;15.40;58.60;;;;;;5052654;28;20305;-71
2021/10/28 16:36:58;;;;;;;12.93;1.27;;;15.40;59.00;;;;;;5052127;28;20260;-72
2021/10/28 16:39:26;;;;;;;1.07;1.07;;;15.30;59.30;;;;;;5034705;28;20218;-71
2021/10/28 16:41:56;;;;;;;0.50;0.50;;;15.20;59.30;;;;;;5033711;28;20210;-72
2021/10/28 16:44:24;;;;;;;9.77;1.43;;;15.10;59.20;;;;;;5051975;28;20698;-72
2021/10/28 16:46:53;;;;;;;5.03;0.90;;;15.10;59.30;;;;;;5054392;28;20202;-71
2021/10/28 16:49:21;;;;;;;1.00;1.00;;;15.00;59.30;;;;;;5071151;28;20263;-72
2021/10/28 16:51:49;;;;;;;4.73;0.80;;;15.00;59.50;;;;;;5070035;28;20502;-71
2021/10/28 16:54:22;;;;;;;1.87;1.70;;;14.90;59.70;;;;;;5072534;28;20653;-72
2021/10/28 16:56:52;;;;;;;0.97;0.97;;;14.90;60.00;;;;;;5070154;28;20256;-73
2021/10/28 16:59:19;;;;;;;0.53;0.53;;;14.80;60.20;;;;;;5071251;28;20213;-72
2021/10/28 17:01:46;;;;;;;0.30;0.30;;;14.70;60.30;;;;;;5054178;28;20643;-73
2021/10/28 17:04:14;;;;;;;1.57;1.13;;;14.70;60.40;;;;;;5071772;28;20233;-71
2021/10/28 17:06:41;;;;;;;1.23;1.13;;;14.70;60.50;;;;;;5053932;28;20206;-71
2021/10/28 17:09:10;;;;;;;0.43;0.43;;;14.70;60.50;;;;;;5054840;28;20289;-71
2021/10/28 17:11:40;;;;;;;1.40;1.37;;;14.70;60.60;;;;;;5072075;28;20205;-71
2021/10/28 17:14:08;;;;;;;1.03;0.93;;;14.60;60.60;;;;;;5055958;28;20213;-72
2021/10/28 17:16:37;;;;;;;1.10;0.67;;;14.60;60.70;;;;;;5072081;28;20549;-71
2021/10/28 17:19:07;;;;;;;4.47;2.33;;;14.60;60.90;;;;;;5072151;28;20210;-71
2021/10/28 17:21:35;;;;;;;0.20;0.20;;;14.50;61.10;;;;;;5073986;28;20220;-71
2021/10/28 17:24:05;;;;;;;1.00;0.57;;;14.40;61.30;;;;;;5073892;28;20214;-71
2021/10/28 17:26:33;;;;;;;0.30;0.30;;;14.30;61.50;;;;;;5054100;28;20324;-71
2021/10/28 17:29:03;;;;;;;0.60;0.60;;;14.20;61.70;;;;;;5074239;28;20244;-71
2021/10/28 17:31:33;;;;;;;1.30;0.53;;;14.10;62.00;;;;;;5072332;28;20210;-71
2021/10/28 17:34:04;;;;;;;0.33;0.33;;;14.00;62.20;;;;;;5071529;28;20213;-71
2021/10/28 17:36:32;;;;;;;0.83;0.83;;;13.90;62.60;;;;;;5054120;28;20692;-74
2021/10/28 17:39:03;;;;;;;1.17;1.10;;;13.80;62.80;;;;;;5072115;28;20614;-71
2021/10/28 17:41:34;;;;;;;0.93;0.67;;;13.70;63.10;;;;;;5054897;28;20205;-74
2021/10/28 17:44:04;;;;;;;0.50;0.50;;;13.70;63.20;;;;;;5070827;28;20234;-73
2021/10/28 17:46:32;;;;;;;0.97;0.97;;;13.60;63.40;;;;;;5070700;28;20225;-72
2021/10/28 17:49:00;;;;;;;0.97;0.97;;;13.60;63.80;;;;;;5054386;28;20217;-70
2021/10/28 17:51:31;;;;;;;1.03;0.97;;;13.50;64.00;;;;;;5071135;28;20300;-71
2021/10/28 17:54:03;;;;;;;1.17;1.07;;;13.50;64.10;;;;;;5054976;28;20216;-71
2021/10/28 17:56:33;;;;;;;2.10;1.30;;;13.50;64.20;;;;;;5052852;28;20596;-71
2021/10/28 17:59:04;;;;;;;1.53;0.97;;;13.40;64.40;;;;;;5072093;28;20209;-70
2021/10/28 18:01:40;;;;;;;5.87;2.00;;;13.40;64.50;;;;;;5071047;28;20638;-71
2021/10/28 18:04:10;;;;;;;2.63;1.40;;;13.30;64.80;;;;;;5054680;28;20214;-73
2021/10/28 18:06:37;;;;;;;2.23;0.80;;;13.30;64.90;;;;;;5056338;28;20631;-72
2021/10/28 18:09:07;;;;;;;3.03;1.57;;;13.20;65.20;;;;;;5074742;28;20205;-71
2021/10/28 18:11:35;;;;;;;0.80;0.80;;;13.10;65.30;;;;;;5074398;28;20206;-71
2021/10/28 18:14:09;;;;;;;1.73;1.63;;;13.10;65.50;;;;;;5074585;28;20202;-71
2021/10/28 18:16:36;;;;;;;0.70;0.70;;;13.00;65.70;;;;;;5074018;28;20209;-70
2021/10/28 18:19:13;;;;;;;0.93;0.83;;;13.00;65.90;;;;;;5057040;28;20267;-73
2021/10/28 18:21:43;;;;;;;7.00;1.60;;;12.90;65.90;;;;;;5075124;28;20201;-73
2021/10/28 18:24:11;;;;;;;0.73;0.73;;;12.90;66.10;;;;;;5059426;28;20214;-71
2021/10/28 18:26:40;;;;;;;1.00;0.67;;;12.80;66.20;;;;;;5057397;28;20220;-72
2021/10/28 18:29:08;;;;;;;0.83;0.83;;;12.80;66.30;;;;;;5074364;28;20227;-72
2021/10/28 18:31:35;;;;;;;7.73;1.73;;;12.80;66.40;;;;;;5057114;28;20268;-71
2021/10/28 18:34:04;;;;;;;0.50;0.50;;;12.80;66.70;;;;;;5075196;28;20206;-71
2021/10/28 18:36:33;;;;;;;3.23;0.90;;;12.70;66.90;;;;;;5075070;28;20650;-73
2021/10/28 18:39:04;;;;;;;0.40;0.40;;;12.70;67.10;;;;;;5057552;28;20209;-71
2021/10/28 18:41:32;;;;;;;3.37;1.97;;;12.60;67.20;;;;;;5056242;28;20214;-71
2021/10/28 18:43:59;;;;;;;0.20;0.20;;;12.50;67.30;;;;;;5056128;28;20579;-72
2021/10/28 18:46:26;;;;;;;1.50;0.63;;;12.50;67.50;;;;;;5074599;28;20222;-71
2021/10/28 18:49:04;;;;;;;1.03;0.83;;;12.40;67.70;;;;;;5059046;28;20213;-71
2021/10/28 18:51:32;;;;;;;1.20;1.10;;;12.40;67.80;;;;;;5075057;28;20219;-71
2021/10/28 18:54:02;;;;;;;2.00;1.47;;;12.40;68.00;;;;;;5057778;28;20221;-72
2021/10/28 18:56:33;;;;;;;1.07;1.07;;;12.40;68.20;;;;;;5056155;28;20213;-71
2021/10/28 18:59:01;;;;;;;24.83;1.50;;;12.30;68.30;;;;;;5074926;28;20229;-72
2021/10/28 19:01:31;;;;;;;0.83;0.83;;;12.30;68.40;;;;;;5068003;28;20301;-75
2021/10/28 19:03:59;;;;;;;0.30;0.30;;;12.30;68.60;;;;;;5055747;28;20206;-74
2021/10/28 19:06:26;;;;;;;1.50;1.43;;;12.20;68.70;;;;;;5072039;28;20237;-71
2021/10/28 19:08:53;;;;;;;0.97;0.93;;;12.20;68.80;;;;;;5072276;28;20209;-71
2021/10/28 19:11:24;;;;;;;1.80;1.70;;;12.10;69.00;;;;;;5070733;28;20653;-73
2021/10/28 19:13:51;;;;;;;6.93;1.60;;;12.10;69.20;;;;;;5050630;28;20292;-72
2021/10/28 19:16:22;;;;;;;0.60;0.60;;;12.00;69.50;;;;;;5054506;28;20214;-72
2021/10/28 19:18:50;;;;;;;1.10;1.10;;;12.00;69.60;;;;;;5054875;28;20209;-72
2021/10/28 19:21:20;;;;;;;1.90;1.47;;;11.90;69.80;;;;;;5054711;28;20229;-71
2021/10/28 19:23:47;;;;;;;3.73;0.83;;;11.90;70.00;;;;;;5055172;28;20209;-72
2021/10/28 19:26:17;;;;;;;0.43;0.43;;;11.80;70.30;;;;;;5071514;28;20264;-71
2021/10/28 19:28:45;;;;;;;4.63;1.83;;;11.80;70.50;;;;;;5070507;28;20209;-71
2021/10/28 19:31:23;;;;;;;1.07;1.07;;;11.70;70.60;;;;;;5071633;28;20569;-71
2021/10/28 19:33:57;;;;;;;2.50;2.37;;;11.70;70.70;;;;;;5071683;28;20360;-71
2021/10/28 19:36:35;;;;;;;0.57;0.57;;;11.70;70.70;;;;;;5055225;28;20282;-71
2021/10/28 19:47:06;;;;;;;0.73;0.73;;;11.60;71.40;;;;;;5071990;28;20198;-72
2021/10/28 19:49:35;;;;;;;1.60;1.03;;;11.50;71.60;;;;;;5072309;28;20210;-75
2021/10/28 19:52:06;;;;;;;1.20;0.63;;;11.50;71.80;;;;;;5054529;28;20205;-71
2021/10/28 19:54:36;;;;;;;1.90;1.80;;;11.40;71.90;;;;;;5044991;28;20203;-71
2021/10/28 19:57:10;;;;;;;0.53;0.53;;;11.40;72.00;;;;;;5033427;28;20213;-71
2021/10/28 19:59:44;;;;;;;0.70;0.70;;;11.30;72.10;;;;;;5036508;28;20210;-71
2021/10/28 20:02:19;;;;;;;2.10;1.47;;;11.30;72.30;;;;;;5053410;28;20198;-71
2021/10/28 20:06:02;;;;;;;0.50;0.50;;;11.30;72.40;;;;;;5054011;28;20257;-73
2021/10/28 20:13:46;;;;;;;4.33;3.37;;;11.10;72.80;;;;;;5071578;28;20388;-73
2021/10/28 20:21:35;;;;;;;0.50;0.50;;;10.90;73.60;;;;;;5069978;28;20635;-72
2021/10/28 20:24:03;;;;;;;4.40;2.40;;;10.90;73.90;;;;;;5053505;28;20217;-71
2021/10/28 20:26:30;;;;;;;1.63;1.53;;;10.90;74.10;;;;;;5069830;28;20229;-72
2021/10/28 20:29:00;;;;;;;1.00;1.00;;;10.90;74.10;;;;;;5070328;28;20205;-71
2021/10/28 20:31:27;;;;;;;0.50;0.50;;;10.80;74.20;;;;;;5070457;28;20214;-72
2021/10/28 20:39:19;;;;;;;1.70;0.77;;;10.80;74.20;;;;;;5074029;28;20281;-72
2021/10/28 20:41:47;;;;;;;2.00;1.60;;;10.80;74.20;;;;;;5074188;28;20210;-75
2021/10/28 20:44:15;;;;;;;6.73;1.73;;;10.80;74.30;;;;;;5073240;28;20242;-72
2021/10/28 20:46:42;;;;;;;1.17;1.10;;;10.80;74.30;;;;;;5055073;28;20685;-73
2021/10/28 20:49:12;;;;;;;2.27;1.77;;;10.90;74.30;;;;;;5055201;28;20206;-72
2021/10/28 20:51:39;;;;;;;0.93;0.93;;;10.90;74.50;;;;;;5054082;28;20201;-71
2021/10/28 20:54:08;;;;;;;3.43;2.73;;;10.90;74.50;;;;;;5071291;28;20209;-71
2021/10/28 20:56:36;;;;;;;4.83;2.80;;;10.90;74.60;;;;;;5071725;28;20785;-73
2021/10/28 20:59:05;;;;;;;2.90;2.60;;;10.90;74.80;;;;;;5071555;28;20214;-72
2021/10/28 21:01:33;;;;;;;1.93;1.83;;;10.90;74.90;;;;;;5070841;28;20210;-71
2021/10/28 21:04:00;;;;;;;5.63;3.00;;;10.90;75.00;;;;;;5071210;28;20217;-71
2021/10/28 21:06:28;;;;;;;2.37;0.90;;;10.90;75.20;;;;;;5070793;28;20233;-72
2021/10/28 21:08:57;;;;;;;7.63;2.43;;;10.90;75.30;;;;;;5053989;28;20202;-72
2021/10/28 21:11:25;;;;;;;4.53;4.17;;;10.90;75.30;;;;;;5071176;28;20206;-73
2021/10/28 21:13:53;;;;;;;28.23;3.57;;;10.90;75.40;;;;;;5072253;28;20547;-72
2021/10/28 21:16:20;;;;;;;2.27;2.10;;;10.80;75.30;;;;;;5072122;28;20223;-72
2021/10/28 21:18:48;;;;;;;1.70;1.57;;;10.80;75.40;;;;;;5052431;28;20862;-71
2021/10/28 21:21:15;;;;;;;4.20;2.73;;;10.80;75.50;;;;;;5070674;28;20556;-71
2021/10/28 21:23:42;;;;;;;2.73;1.83;;;10.80;75.60;;;;;;5071298;28;20267;-71
2021/10/28 21:26:09;;;;;;;2.80;2.60;;;10.80;75.80;;;;;;5053901;28;20239;-71
2021/10/28 21:28:37;;;;;;;1.60;1.50;;;10.70;75.80;;;;;;5071761;28;20233;-72
2021/10/28 21:31:04;;;;;;;5.23;4.50;;;10.80;75.90;;;;;;5071114;28;20205;-72
2021/10/28 21:33:32;;;;;;;3.40;0.73;;;10.70;75.90;;;;;;5053790;28;20293;-73
2021/10/28 21:35:59;;;;;;;2.37;2.27;;;10.70;75.90;;;;;;5054489;28;20292;-71
2021/10/28 21:38:26;;;;;;;4.30;2.27;;;10.70;76.00;;;;;;5054795;28;20225;-73
2021/10/28 21:40:54;;;;;;;4.63;4.13;;;10.60;76.00;;;;;;5054377;28;20210;-73
2021/10/28 21:43:23;;;;;;;2.47;2.23;;;10.70;76.10;;;;;;5053730;28;20262;-73
2021/10/28 21:45:51;;;;;;;2.40;2.20;;;10.60;76.10;;;;;;5053340;28;20233;-72
2021/10/28 21:48:21;;;;;;;5.80;2.57;;;10.60;76.20;;;;;;5053444;28;20229;-71
2021/10/28 21:50:56;;;;;;;3.53;2.57;;;10.60;76.30;;;;;;5055159;28;20228;-72
2021/10/28 21:53:24;;;;;;;1.67;1.33;;;10.60;76.40;;;;;;5054356;28;20201;-72
2021/10/28 21:58:55;;;;;;;1.37;1.27;;;10.50;76.50;;;;;;5072012;28;20214;-71
2021/10/28 22:25:57;;;;;;;1.20;1.20;;;10.00;77.40;;;;;;5070522;28;20248;-71
2021/10/28 22:28:24;;;;;;;1.00;1.00;;;10.00;77.50;;;;;;5053584;28;20206;-71
2021/10/28 22:30:54;;;;;;;1.33;1.33;;;10.00;77.60;;;;;;5070794;28;20205;-72
2021/10/28 22:33:22;;;;;;;2.37;2.17;;;10.00;77.70;;;;;;5053206;28;20209;-71
2021/10/28 22:35:53;;;;;;;2.67;2.47;;;10.00;77.90;;;;;;5053353;28;20209;-71
2021/10/28 22:38:30;;;;;;;5.73;3.93;;;9.90;77.90;;;;;;5056087;28;20229;-71
2021/10/28 22:40:57;;;;;;;3.50;3.13;;;9.90;77.90;;;;;;5071309;28;20292;-72
2021/10/28 22:43:27;;;;;;;2.40;2.10;;;9.80;77.80;;;;;;5053409;28;20246;-71
2021/10/28 22:45:57;;;;;;;2.83;1.97;;;9.80;77.70;;;;;;5053647;28;20237;-72
2021/10/28 22:48:25;;;;;;;2.53;1.03;;;9.70;77.80;;;;;;5054202;28;20214;-72
2021/10/28 22:50:54;;;;;;;4.53;3.23;;;9.70;77.70;;;;;;5053298;28;20197;-74
2021/10/28 22:53:22;;;;;;;3.43;2.10;;;9.60;77.60;;;;;;5056629;28;20285;-74
2021/10/28 22:55:49;;;;;;;2.90;2.60;;;9.60;77.60;;;;;;5073468;28;20240;-72
2021/10/28 22:58:31;;;;;;;1.43;1.33;;;9.50;77.60;;;;;;5074408;28;20221;-72
2021/10/28 23:22:01;;;;;;;1.50;1.50;;;9.30;77.80;;;;;;5072965;28;20563;-72
2021/10/28 23:24:28;;;;;;;2.40;2.20;;;9.30;77.90;;;;;;5072565;28;20653;-72
2021/10/28 23:26:55;;;;;;;2.37;1.97;;;9.30;78.00;;;;;;5071757;28;20226;-72
2021/10/28 23:29:25;;;;;;;1.83;1.70;;;9.30;78.30;;;;;;5072824;28;20206;-72
2021/10/28 23:31:55;;;;;;;6.13;2.80;;;9.30;78.30;;;;;;5055978;28;20228;-72
2021/10/28 23:34:22;;;;;;;2.60;1.60;;;9.30;78.30;;;;;;5055205;28;20267;-72
2021/10/28 23:36:50;;;;;;;5.30;3.77;;;9.30;78.30;;;;;;5072616;28;20213;-72
2021/10/28 23:39:16;;;;;;;7.13;3.87;;;9.30;78.30;;;;;;5072870;28;20724;-72
2021/10/28 23:41:44;;;;;;;5.37;2.67;;;9.30;78.40;;;;;;5053941;28;20605;-71
2021/10/28 23:44:12;;;;;;;2.47;2.07;;;9.30;78.40;;;;;;5054316;28;20688;-74
2021/10/28 23:46:39;;;;;;;1.13;1.13;;;9.30;78.40;;;;;;5054887;28;20567;-71
2021/10/28 23:49:06;;;;;;;3.90;2.53;;;9.30;78.40;;;;;;5073791;28;20220;-71
2021/10/28 23:51:33;;;;;;;4.67;4.27;;;9.30;78.60;;;;;;5073136;28;20198;-72
2021/10/28 23:54:00;;;;;;;2.37;2.17;;;9.30;78.70;;;;;;5058464;28;20521;-74
2021/10/28 23:56:27;;;;;;;5.23;2.83;;;9.30;78.80;;;;;;5076338;28;20665;-72
2021/10/28 23:58:55;;;;;;;3.63;3.33;;;9.30;78.90;;;;;;5075761;28;20210;-71
